sensor_id;sensor_type;location;lat;lon;timestamp;pressure;altitude;pressure_sealevel;temperature;humidity
74659;BME280;63186;51.204;6.536;2023-05-07T00:00:52;101167.13;;;13.57;100.00
74659;BME280;63186;51.204;6.536;2023-05-07T00:03:17;101168.09;;;13.62;100.00
74659;BME280;63186;51.204;6.536;2023-05-07T00:05:43;101164.19;;;13.63;100.00
74659;BME280;63186;51.204;6.536;2023-05-07T00:08:08;101168.63;;;13.64;100.00
74659;BME280;63186;51.204;6.536;2023-05-07T00:10:33;101163.09;;;13.64;100.00
74659;BME280;63186;51.204;6.536;2023-05-07T00:12:59;101160.81;;;13.66;100.00
74659;BME280;63186;51.204;6.536;2023-05-07T00:15:24;101165.03;;;13.63;100.00
74659;BME280;63186;51.204;6.536;2023-05-07T00:17:49;101158.19;;;13.61;100.00
74659;BME280;63186;51.204;6.536;2023-05-07T00:20:15;101160.28;;;13.55;100.00
74659;BME280;63186;51.204;6.536;2023-05-07T00:22:40;101165.97;;;13.50;100.00
74659;BME280;63186;51.204;6.536;2023-05-07T00:25:06;101152.97;;;13.50;100.00
74659;BME280;63186;51.204;6.536;2023-05-07T00:27:31;101152.78;;;13.47;100.00
74659;BME280;63186;51.204;6.536;2023-05-07T00:29:56;101162.53;;;13.44;100.00
74659;BME280;63186;51.204;6.536;2023-05-07T00:32:22;101164.50;;;13.44;100.00
74659;BME280;63186;51.204;6.536;2023-05-07T00:34:47;101161.88;;;13.47;100.00
74659;BME280;63186;51.204;6.536;2023-05-07T00:37:12;101162.69;;;13.48;100.00
74659;BME280;63186;51.204;6.536;2023-05-07T00:39:37;101161.06;;;13.47;100.00
74659;BME280;63186;51.204;6.536;2023-05-07T00:42:03;101160.59;;;13.45;100.00
74659;BME280;63186;51.204;6.536;2023-05-07T00:44:29;101167.75;;;13.46;100.00
74659;BME280;63186;51.204;6.536;2023-05-07T00:46:55;101155.88;;;13.45;100.00
74659;BME280;63186;51.204;6.536;2023-05-07T00:49:21;101152.28;;;13.45;100.00
74659;BME280;63186;51.204;6.536;2023-05-07T00:51:47;101145.44;;;13.42;100.00
74659;BME280;63186;51.204;6.536;2023-05-07T00:54:13;101146.56;;;13.41;100.00
74659;BME280;63186;51.204;6.536;2023-05-07T00:56:39;101137.13;;;13.34;100.00
74659;BME280;63186;51.204;6.536;2023-05-07T00:59:05;101138.41;;;13.27;100.00
74659;BME280;63186;51.204;6.536;2023-05-07T01:01:31;101137.91;;;13.25;100.00
74659;BME280;63186;51.204;6.536;2023-05-07T01:03:56;101139.06;;;13.24;100.00
74659;BME280;63186;51.204;6.536;2023-05-07T01:06:23;101142.13;;;13.23;100.00
74659;BME280;63186;51.204;6.536;2023-05-07T01:08:50;101146.69;;;13.27;100.00
74659;BME280;63186;51.204;6.536;2023-05-07T01:11:17;101138.25;;;13.33;100.00
74659;BME280;63186;51.204;6.536;2023-05-07T01:13:45;101143.66;;;13.38;100.00
74659;BME280;63186;51.204;6.536;2023-05-07T01:16:11;101135.84;;;13.40;100.00
74659;BME280;63186;51.204;6.536;2023-05-07T01:18:36;101135.50;;;13.41;100.00
74659;BME280;63186;51.204;6.536;2023-05-07T01:21:04;101121.81;;;13.27;100.00
74659;BME280;63186;51.204;6.536;2023-05-07T01:23:30;101127.81;;;13.21;100.00
74659;BME280;63186;51.204;6.536;2023-05-07T01:25:55;101127.63;;;13.17;100.00
74659;BME280;63186;51.204;6.536;2023-05-07T01:28:21;101134.09;;;13.13;100.00
74659;BME280;63186;51.204;6.536;2023-05-07T01:30:54;101132.47;;;13.12;100.00
74659;BME280;63186;51.204;6.536;2023-05-07T01:33:21;101134.41;;;13.11;100.00
74659;BME280;63186;51.204;6.536;2023-05-07T01:35:51;101130.50;;;13.12;100.00
74659;BME280;63186;51.204;6.536;2023-05-07T01:38:18;101120.72;;;13.06;100.00
74659;BME280;63186;51.204;6.536;2023-05-07T01:40:43;101129.34;;;13.04;100.00
74659;BME280;63186;51.204;6.536;2023-05-07T01:43:09;101133.53;;;13.02;100.00
74659;BME280;63186;51.204;6.536;2023-05-07T01:45:35;101134.72;;;13.10;100.00
74659;BME280;63186;51.204;6.536;2023-05-07T01:48:02;101133.44;;;13.16;100.00
74659;BME280;63186;51.204;6.536;2023-05-07T01:50:27;101135.78;;;13.22;100.00
74659;BME280;63186;51.204;6.536;2023-05-07T01:52:53;101140.16;;;13.23;100.00
74659;BME280;63186;51.204;6.536;2023-05-07T01:55:18;101135.22;;;13.12;100.00
74659;BME280;63186;51.204;6.536;2023-05-07T01:57:44;101140.94;;;12.84;100.00
74659;BME280;63186;51.204;6.536;2023-05-07T02:00:09;101130.66;;;12.76;100.00
74659;BME280;63186;51.204;6.536;2023-05-07T02:02:35;101130.97;;;12.74;100.00
74659;BME280;63186;51.204;6.536;2023-05-07T02:05:01;101124.81;;;12.77;100.00
74659;BME280;63186;51.204;6.536;2023-05-07T02:07:27;101129.22;;;12.79;100.00
74659;BME280;63186;51.204;6.536;2023-05-07T02:09:52;101112.94;;;12.77;100.00
74659;BME280;63186;51.204;6.536;2023-05-07T02:12:17;101122.88;;;12.78;100.00
74659;BME280;63186;51.204;6.536;2023-05-07T02:14:43;101124.31;;;12.75;100.00
74659;BME280;63186;51.204;6.536;2023-05-07T02:17:08;101126.38;;;12.70;100.00
74659;BME280;63186;51.204;6.536;2023-05-07T02:19:33;101119.88;;;12.66;100.00
74659;BME280;63186;51.204;6.536;2023-05-07T02:21:59;101107.00;;;12.61;100.00
74659;BME280;63186;51.204;6.536;2023-05-07T02:24:24;101107.94;;;12.57;100.00
74659;BME280;63186;51.204;6.536;2023-05-07T02:26:49;101120.34;;;12.59;100.00
74659;BME280;63186;51.204;6.536;2023-05-07T02:29:15;101125.41;;;12.66;100.00
74659;BME280;63186;51.204;6.536;2023-05-07T02:31:40;101121.56;;;12.75;100.00
74659;BME280;63186;51.204;6.536;2023-05-07T02:34:05;101127.44;;;12.83;100.00
74659;BME280;63186;51.204;6.536;2023-05-07T02:36:31;101126.94;;;12.81;100.00
74659;BME280;63186;51.204;6.536;2023-05-07T02:38:56;101124.50;;;12.79;100.00
74659;BME280;63186;51.204;6.536;2023-05-07T02:41:21;101117.97;;;12.75;100.00
74659;BME280;63186;51.204;6.536;2023-05-07T02:43:47;101130.16;;;12.74;100.00
74659;BME280;63186;51.204;6.536;2023-05-07T02:46:12;101124.00;;;12.77;100.00
74659;BME280;63186;51.204;6.536;2023-05-07T02:48:37;101125.69;;;12.87;100.00
74659;BME280;63186;51.204;6.536;2023-05-07T02:51:03;101123.09;;;12.90;100.00
74659;BME280;63186;51.204;6.536;2023-05-07T02:53:28;101126.16;;;12.89;100.00
74659;BME280;63186;51.204;6.536;2023-05-07T02:55:58;101135.59;;;12.88;100.00
74659;BME280;63186;51.204;6.536;2023-05-07T02:58:24;101128.41;;;12.78;100.00
74659;BME280;63186;51.204;6.536;2023-05-07T03:00:49;101137.31;;;12.75;100.00
74659;BME280;63186;51.204;6.536;2023-05-07T03:03:15;101128.66;;;12.68;100.00
74659;BME280;63186;51.204;6.536;2023-05-07T03:05:41;101132.25;;;12.68;100.00
74659;BME280;63186;51.204;6.536;2023-05-07T03:08:06;101127.47;;;12.60;100.00
74659;BME280;63186;51.204;6.536;2023-05-07T03:10:32;101129.28;;;12.65;100.00
74659;BME280;63186;51.204;6.536;2023-05-07T03:12:57;101127.41;;;12.74;100.00
74659;BME280;63186;51.204;6.536;2023-05-07T03:15:22;101129.03;;;12.75;100.00
74659;BME280;63186;51.204;6.536;2023-05-07T03:17:48;101118.31;;;12.73;100.00
74659;BME280;63186;51.204;6.536;2023-05-07T03:20:13;101112.78;;;12.73;100.00
74659;BME280;63186;51.204;6.536;2023-05-07T03:22:39;101120.25;;;12.73;100.00
74659;BME280;63186;51.204;6.536;2023-05-07T03:25:04;101117.16;;;12.74;100.00
74659;BME280;63186;51.204;6.536;2023-05-07T03:27:30;101116.22;;;12.79;100.00
74659;BME280;63186;51.204;6.536;2023-05-07T03:29:55;101120.75;;;12.75;100.00
74659;BME280;63186;51.204;6.536;2023-05-07T03:32:21;101122.03;;;12.77;100.00
74659;BME280;63186;51.204;6.536;2023-05-07T03:34:46;101110.69;;;12.79;100.00
74659;BME280;63186;51.204;6.536;2023-05-07T03:37:11;101120.94;;;12.79;100.00
74659;BME280;63186;51.204;6.536;2023-05-07T03:39:36;101113.31;;;12.84;100.00
74659;BME280;63186;51.204;6.536;2023-05-07T03:42:02;101106.50;;;12.90;100.00
74659;BME280;63186;51.204;6.536;2023-05-07T03:44:28;101112.22;;;12.94;100.00
74659;BME280;63186;51.204;6.536;2023-05-07T03:46:53;101101.97;;;12.94;100.00
74659;BME280;63186;51.204;6.536;2023-05-07T03:49:18;101104.38;;;12.87;100.00
74659;BME280;63186;51.204;6.536;2023-05-07T03:51:43;101116.38;;;12.83;100.00
74659;BME280;63186;51.204;6.536;2023-05-07T03:54:09;101107.59;;;12.81;100.00
74659;BME280;63186;51.204;6.536;2023-05-07T03:56:34;101119.03;;;12.88;100.00
74659;BME280;63186;51.204;6.536;2023-05-07T03:59:00;101121.66;;;12.93;100.00
74659;BME280;63186;51.204;6.536;2023-05-07T04:01:25;101124.09;;;12.94;100.00
74659;BME280;63186;51.204;6.536;2023-05-07T04:03:51;101128.00;;;12.93;100.00
74659;BME280;63186;51.204;6.536;2023-05-07T04:06:16;101126.03;;;12.94;100.00
74659;BME280;63186;51.204;6.536;2023-05-07T04:08:44;101130.44;;;12.95;100.00
74659;BME280;63186;51.204;6.536;2023-05-07T04:11:10;101134.00;;;12.95;100.00
74659;BME280;63186;51.204;6.536;2023-05-07T04:13:35;101131.88;;;12.92;100.00
74659;BME280;63186;51.204;6.536;2023-05-07T04:16:02;101137.72;;;12.91;100.00
74659;BME280;63186;51.204;6.536;2023-05-07T04:18:27;101139.03;;;12.93;100.00
74659;BME280;63186;51.204;6.536;2023-05-07T04:20:53;101131.88;;;12.92;100.00
74659;BME280;63186;51.204;6.536;2023-05-07T04:23:18;101134.00;;;12.95;100.00
74659;BME280;63186;51.204;6.536;2023-05-07T04:25:43;101135.81;;;13.00;100.00
74659;BME280;63186;51.204;6.536;2023-05-07T04:28:08;101137.94;;;13.03;100.00
74659;BME280;63186;51.204;6.536;2023-05-07T04:30:34;101143.34;;;13.08;100.00
74659;BME280;63186;51.204;6.536;2023-05-07T04:32:59;101134.72;;;13.10;100.00
74659;BME280;63186;51.204;6.536;2023-05-07T04:35:24;101129.19;;;13.10;100.00
74659;BME280;63186;51.204;6.536;2023-05-07T04:37:49;101132.13;;;13.04;100.00
74659;BME280;63186;51.204;6.536;2023-05-07T04:40:15;101129.34;;;13.04;100.00
74659;BME280;63186;51.204;6.536;2023-05-07T04:42:41;101123.50;;;13.06;100.00
74659;BME280;63186;51.204;6.536;2023-05-07T04:45:06;101135.53;;;13.10;100.00
74659;BME280;63186;51.204;6.536;2023-05-07T04:47:31;101128.06;;;13.11;100.00
74659;BME280;63186;51.204;6.536;2023-05-07T04:49:57;101123.38;;;13.11;100.00
74659;BME280;63186;51.204;6.536;2023-05-07T04:52:23;101125.16;;;13.16;100.00
74659;BME280;63186;51.204;6.536;2023-05-07T04:54:48;101131.69;;;13.20;100.00
74659;BME280;63186;51.204;6.536;2023-05-07T04:57:14;101124.41;;;13.24;100.00
74659;BME280;63186;51.204;6.536;2023-05-07T04:59:39;101125.34;;;13.19;100.00
74659;BME280;63186;51.204;6.536;2023-05-07T05:02:04;101130.88;;;13.19;100.00
74659;BME280;63186;51.204;6.536;2023-05-07T05:04:30;101137.72;;;13.22;100.00
74659;BME280;63186;51.204;6.536;2023-05-07T05:06:56;101137.25;;;13.28;100.00
74659;BME280;63186;51.204;6.536;2023-05-07T05:09:21;101131.09;;;13.32;100.00
74659;BME280;63186;51.204;6.536;2023-05-07T05:11:46;101136.16;;;13.38;100.00
74659;BME280;63186;51.204;6.536;2023-05-07T05:14:12;101146.75;;;13.45;100.00
74659;BME280;63186;51.204;6.536;2023-05-07T05:16:37;101153.25;;;13.49;100.00
74659;BME280;63186;51.204;6.536;2023-05-07T05:19:02;101154.25;;;13.53;100.00
74659;BME280;63186;51.204;6.536;2023-05-07T05:21:28;101149.56;;;13.62;100.00
74659;BME280;63186;51.204;6.536;2023-05-07T05:23:53;101143.41;;;13.65;100.00
74659;BME280;63186;51.204;6.536;2023-05-07T05:26:20;101147.78;;;13.75;100.00
74659;BME280;63186;51.204;6.536;2023-05-07T05:28:46;101151.06;;;13.85;100.00
74659;BME280;63186;51.204;6.536;2023-05-07T05:31:11;101148.50;;;13.98;100.00
74659;BME280;63186;51.204;6.536;2023-05-07T05:33:37;101155.50;;;14.12;100.00
74659;BME280;63186;51.204;6.536;2023-05-07T05:36:02;101154.19;;;14.19;99.90
74659;BME280;63186;51.204;6.536;2023-05-07T05:38:27;101153.56;;;14.22;99.21
74659;BME280;63186;51.204;6.536;2023-05-07T05:40:52;101155.00;;;14.28;98.78
74659;BME280;63186;51.204;6.536;2023-05-07T05:43:18;101154.34;;;14.31;98.73
74659;BME280;63186;51.204;6.536;2023-05-07T05:45:43;101153.19;;;14.40;98.03
74659;BME280;63186;51.204;6.536;2023-05-07T05:48:08;101166.06;;;14.45;97.40
74659;BME280;63186;51.204;6.536;2023-05-07T05:50:34;101167.09;;;14.49;97.29
74659;BME280;63186;51.204;6.536;2023-05-07T05:53:01;101153.91;;;14.55;96.95
74659;BME280;63186;51.204;6.536;2023-05-07T05:55:26;101164.16;;;14.54;95.01
74659;BME280;63186;51.204;6.536;2023-05-07T05:57:52;101166.25;;;14.57;95.68
74659;BME280;63186;51.204;6.536;2023-05-07T06:00:17;101162.81;;;14.60;95.22
74659;BME280;63186;51.204;6.536;2023-05-07T06:02:43;101164.94;;;14.63;95.11
74659;BME280;63186;51.204;6.536;2023-05-07T06:05:08;101162.00;;;14.77;94.48
74659;BME280;63186;51.204;6.536;2023-05-07T06:07:34;101173.84;;;14.86;94.10
74659;BME280;63186;51.204;6.536;2023-05-07T06:10:00;101173.69;;;15.00;92.78
74659;BME280;63186;51.204;6.536;2023-05-07T06:12:25;101174.50;;;15.01;92.63
74659;BME280;63186;51.204;6.536;2023-05-07T06:14:51;101177.56;;;14.99;92.33
74659;BME280;63186;51.204;6.536;2023-05-07T06:17:17;101180.03;;;15.01;91.98
74659;BME280;63186;51.204;6.536;2023-05-07T06:19:42;101184.25;;;15.07;92.48
74659;BME280;63186;51.204;6.536;2023-05-07T06:22:07;101179.97;;;15.27;92.01
74659;BME280;63186;51.204;6.536;2023-05-07T06:24:33;101184.59;;;15.43;91.24
74659;BME280;63186;51.204;6.536;2023-05-07T06:26:58;101181.75;;;15.61;89.84
74659;BME280;63186;51.204;6.536;2023-05-07T06:29:24;101182.09;;;16.10;88.83
74659;BME280;63186;51.204;6.536;2023-05-07T06:31:52;101180.81;;;17.27;82.24
74659;BME280;63186;51.204;6.536;2023-05-07T06:34:17;101176.34;;;17.84;80.37
74659;BME280;63186;51.204;6.536;2023-05-07T06:36:42;101185.59;;;18.53;78.80
74659;BME280;63186;51.204;6.536;2023-05-07T06:39:08;101192.59;;;19.18;75.21
74659;BME280;63186;51.204;6.536;2023-05-07T06:41:33;101184.13;;;19.15;75.22
74659;BME280;63186;51.204;6.536;2023-05-07T06:43:59;101176.13;;;18.57;77.23
74659;BME280;63186;51.204;6.536;2023-05-07T06:46:24;101175.16;;;18.09;78.29
74659;BME280;63186;51.204;6.536;2023-05-07T06:48:50;101183.34;;;18.18;78.03
74659;BME280;63186;51.204;6.536;2023-05-07T06:51:15;101185.09;;;18.91;75.71
74659;BME280;63186;51.204;6.536;2023-05-07T06:53:40;101193.22;;;19.28;74.00
74659;BME280;63186;51.204;6.536;2023-05-07T06:56:06;101189.34;;;19.16;74.08
74659;BME280;63186;51.204;6.536;2023-05-07T06:58:31;101189.97;;;19.25;74.31
74659;BME280;63186;51.204;6.536;2023-05-07T07:00:56;101194.84;;;19.44;72.60
74659;BME280;63186;51.204;6.536;2023-05-07T07:03:22;101189.50;;;20.02;70.64
74659;BME280;63186;51.204;6.536;2023-05-07T07:08:12;101193.06;;;21.19;68.59
74659;BME280;63186;51.204;6.536;2023-05-07T07:10:37;101189.81;;;20.94;69.10
74659;BME280;63186;51.204;6.536;2023-05-07T07:13:03;101196.09;;;20.88;67.96
74659;BME280;63186;51.204;6.536;2023-05-07T07:15:28;101199.19;;;20.63;67.68
74659;BME280;63186;51.204;6.536;2023-05-07T07:17:53;101196.66;;;19.84;70.11
74659;BME280;63186;51.204;6.536;2023-05-07T07:20:19;101197.25;;;19.14;73.49
74659;BME280;63186;51.204;6.536;2023-05-07T07:22:44;101202.34;;;18.81;75.25
74659;BME280;63186;51.204;6.536;2023-05-07T07:25:09;101204.81;;;18.58;75.86
74659;BME280;63186;51.204;6.536;2023-05-07T07:27:36;101199.47;;;18.25;74.20
74659;BME280;63186;51.204;6.536;2023-05-07T07:30:01;101197.56;;;18.13;76.20
74659;BME280;63186;51.204;6.536;2023-05-07T07:32:26;101196.34;;;18.26;75.98
74659;BME280;63186;51.204;6.536;2023-05-07T07:34:52;101191.44;;;18.63;75.09
74659;BME280;63186;51.204;6.536;2023-05-07T07:37:17;101199.53;;;19.24;73.00
74659;BME280;63186;51.204;6.536;2023-05-07T07:39:42;101190.13;;;19.96;70.21
74659;BME280;63186;51.204;6.536;2023-05-07T07:42:08;101203.50;;;20.41;68.31
74659;BME280;63186;51.204;6.536;2023-05-07T07:44:33;101204.31;;;20.22;68.27
74659;BME280;63186;51.204;6.536;2023-05-07T07:46:58;101195.25;;;20.29;67.70
74659;BME280;63186;51.204;6.536;2023-05-07T07:49:24;101190.91;;;20.31;68.13
74659;BME280;63186;51.204;6.536;2023-05-07T07:51:49;101202.41;;;20.84;66.97
74659;BME280;63186;51.204;6.536;2023-05-07T07:54:14;101197.13;;;21.45;64.94
74659;BME280;63186;51.204;6.536;2023-05-07T07:56:39;101203.22;;;22.00;63.79
74659;BME280;63186;51.204;6.536;2023-05-07T07:59:05;101205.69;;;22.05;61.69
74659;BME280;63186;51.204;6.536;2023-05-07T08:01:30;101218.94;;;22.64;61.17
74659;BME280;63186;51.204;6.536;2023-05-07T08:03:56;101205.41;;;23.48;59.36
74659;BME280;63186;51.204;6.536;2023-05-07T08:06:23;101217.25;;;22.90;59.97
74659;BME280;63186;51.204;6.536;2023-05-07T08:08:48;101216.03;;;22.01;61.48
74659;BME280;63186;51.204;6.536;2023-05-07T08:11:14;101210.63;;;21.62;62.80
74659;BME280;63186;51.204;6.536;2023-05-07T08:13:39;101204.72;;;21.67;61.83
74659;BME280;63186;51.204;6.536;2023-05-07T08:16:05;101204.75;;;21.71;61.03
74659;BME280;63186;51.204;6.536;2023-05-07T08:18:30;101217.31;;;22.07;60.83
74659;BME280;63186;51.204;6.536;2023-05-07T08:20:55;101222.38;;;22.84;59.77
74659;BME280;63186;51.204;6.536;2023-05-07T08:23:21;101215.09;;;22.80;59.00
74659;BME280;63186;51.204;6.536;2023-05-07T08:25:47;101221.75;;;22.08;60.04
74659;BME280;63186;51.204;6.536;2023-05-07T08:28:12;101221.22;;;21.49;63.42
74659;BME280;63186;51.204;6.536;2023-05-07T08:30:37;101220.09;;;20.89;64.78
74659;BME280;63186;51.204;6.536;2023-05-07T08:33:02;101219.97;;;20.62;66.52
74659;BME280;63186;51.204;6.536;2023-05-07T08:35:28;101226.22;;;20.40;67.33
74659;BME280;63186;51.204;6.536;2023-05-07T08:37:53;101226.31;;;20.43;67.28
74659;BME280;63186;51.204;6.536;2023-05-07T08:40:20;101223.50;;;20.24;67.79
74659;BME280;63186;51.204;6.536;2023-05-07T08:42:49;101225.97;;;20.10;68.70
74659;BME280;63186;51.204;6.536;2023-05-07T08:45:15;101223.47;;;20.04;68.83
74659;BME280;63186;51.204;6.536;2023-05-07T08:47:47;101218.59;;;20.01;68.52
74659;BME280;63186;51.204;6.536;2023-05-07T08:50:15;101225.16;;;20.09;68.43
74659;BME280;63186;51.204;6.536;2023-05-07T08:52:41;101217.53;;;19.90;68.48
74659;BME280;63186;51.204;6.536;2023-05-07T08:55:07;101226.72;;;19.91;68.20
74659;BME280;63186;51.204;6.536;2023-05-07T08:57:33;101220.94;;;19.99;67.95
74659;BME280;63186;51.204;6.536;2023-05-07T08:59:58;101233.72;;;20.16;67.51
74659;BME280;63186;51.204;6.536;2023-05-07T09:02:24;101226.16;;;20.36;66.39
74659;BME280;63186;51.204;6.536;2023-05-07T09:04:49;101225.47;;;20.58;65.51
74659;BME280;63186;51.204;6.536;2023-05-07T09:07:14;101219.34;;;20.72;63.79
74659;BME280;63186;51.204;6.536;2023-05-07T09:09:40;101223.59;;;20.85;64.56
74659;BME280;63186;51.204;6.536;2023-05-07T09:12:05;101221.59;;;21.05;62.66
74659;BME280;63186;51.204;6.536;2023-05-07T09:14:31;101225.34;;;21.13;61.67
74659;BME280;63186;51.204;6.536;2023-05-07T09:16:56;101220.22;;;21.19;62.33
74659;BME280;63186;51.204;6.536;2023-05-07T09:19:25;101229.81;;;21.60;61.05
74659;BME280;63186;51.204;6.536;2023-05-07T09:22:01;101223.91;;;21.91;60.50
74659;BME280;63186;51.204;6.536;2023-05-07T09:24:27;101226.19;;;21.59;61.44
74659;BME280;63186;51.204;6.536;2023-05-07T09:26:57;101231.53;;;21.45;62.08
74659;BME280;63186;51.204;6.536;2023-05-07T09:29:23;101221.97;;;21.46;62.22
74659;BME280;63186;51.204;6.536;2023-05-07T09:31:48;101223.28;;;21.52;63.34
74659;BME280;63186;51.204;6.536;2023-05-07T09:34:13;101219.66;;;22.01;60.83
74659;BME280;63186;51.204;6.536;2023-05-07T09:36:39;101226.38;;;21.97;61.15
74659;BME280;63186;51.204;6.536;2023-05-07T09:39:04;101227.72;;;22.06;61.02
74659;BME280;63186;51.204;6.536;2023-05-07T09:41:30;101231.34;;;22.33;60.20
74659;BME280;63186;51.204;6.536;2023-05-07T09:43:57;101217.44;;;22.74;59.04
74659;BME280;63186;51.204;6.536;2023-05-07T09:46:30;101227.75;;;22.96;56.03
74659;BME280;63186;51.204;6.536;2023-05-07T09:48:57;101229.25;;;22.87;58.48
74659;BME280;63186;51.204;6.536;2023-05-07T09:53:58;101225.03;;;23.04;57.16
74659;BME280;63186;51.204;6.536;2023-05-07T09:56:26;101226.56;;;22.97;58.20
74659;BME280;63186;51.204;6.536;2023-05-07T09:58:54;101235.00;;;23.01;56.12
74659;BME280;63186;51.204;6.536;2023-05-07T10:01:21;101225.91;;;22.78;58.67
74659;BME280;63186;51.204;6.536;2023-05-07T10:03:48;101221.28;;;22.89;58.60
74659;BME280;63186;51.204;6.536;2023-05-07T10:06:15;101227.91;;;23.11;56.37
74659;BME280;63186;51.204;6.536;2023-05-07T10:08:40;101219.22;;;23.23;57.97
74659;BME280;63186;51.204;6.536;2023-05-07T10:11:07;101227.84;;;23.04;57.89
74659;BME280;63186;51.204;6.536;2023-05-07T10:13:34;101224.22;;;23.03;57.75
74659;BME280;63186;51.204;6.536;2023-05-07T10:16:06;101225.72;;;22.93;56.30
74659;BME280;63186;51.204;6.536;2023-05-07T10:18:32;101223.69;;;22.90;57.82
74659;BME280;63186;51.204;6.536;2023-05-07T10:23:29;101225.09;;;23.11;57.71
74659;BME280;63186;51.204;6.536;2023-05-07T10:25:57;101231.13;;;23.13;57.40
74659;BME280;63186;51.204;6.536;2023-05-07T10:28:25;101219.97;;;23.20;56.55
74659;BME280;63186;51.204;6.536;2023-05-07T10:33:42;101230.91;;;22.61;55.96
74659;BME280;63186;51.204;6.536;2023-05-07T10:36:09;101230.16;;;22.34;56.12
74659;BME280;63186;51.204;6.536;2023-05-07T10:38:34;101233.50;;;22.43;56.28
74659;BME280;63186;51.204;6.536;2023-05-07T10:40:59;101229.19;;;22.50;56.15
74659;BME280;63186;51.204;6.536;2023-05-07T10:43:25;101231.28;;;22.60;55.24
74659;BME280;63186;51.204;6.536;2023-05-07T10:46:16;101231.16;;;22.49;51.34
74659;BME280;63186;51.204;6.536;2023-05-07T10:51:30;101234.00;;;23.20;54.52
74659;BME280;63186;51.204;6.536;2023-05-07T10:56:51;101229.53;;;23.56;53.94
74659;BME280;63186;51.204;6.536;2023-05-07T11:01:54;101230.38;;;23.60;50.61
74659;BME280;63186;51.204;6.536;2023-05-07T11:04:20;101227.22;;;23.65;53.13
74659;BME280;63186;51.204;6.536;2023-05-07T11:15:08;101217.78;;;23.91;52.36
74659;BME280;63186;51.204;6.536;2023-05-07T11:17:35;101219.53;;;24.06;52.39
74659;BME280;63186;51.204;6.536;2023-05-07T11:20:17;101221.03;;;23.97;50.47
74659;BME280;63186;51.204;6.536;2023-05-07T11:22:42;101219.13;;;23.60;51.94
74659;BME280;63186;51.204;6.536;2023-05-07T11:25:08;101219.25;;;23.71;52.01
74659;BME280;63186;51.204;6.536;2023-05-07T11:27:33;101219.31;;;23.78;51.46
74659;BME280;63186;51.204;6.536;2023-05-07T11:29:59;101218.03;;;23.68;50.53
74659;BME280;63186;51.204;6.536;2023-05-07T11:32:28;101217.06;;;23.53;50.67
74659;BME280;63186;51.204;6.536;2023-05-07T11:34:58;101214.94;;;23.40;50.77
74659;BME280;63186;51.204;6.536;2023-05-07T11:37:24;101213.50;;;23.56;50.68
74659;BME280;63186;51.204;6.536;2023-05-07T11:39:50;101216.78;;;23.62;49.53
74659;BME280;63186;51.204;6.536;2023-05-07T11:42:33;101209.00;;;23.48;48.25
74659;BME280;63186;51.204;6.536;2023-05-07T11:45:00;101209.59;;;23.24;51.64
74659;BME280;63186;51.204;6.536;2023-05-07T11:47:25;101215.59;;;23.22;51.92
74659;BME280;63186;51.204;6.536;2023-05-07T11:49:52;101217.97;;;23.20;51.54
74659;BME280;63186;51.204;6.536;2023-05-07T11:52:19;101206.78;;;23.24;51.18
74659;BME280;63186;51.204;6.536;2023-05-07T11:54:57;101221.28;;;23.29;50.21
74659;BME280;63186;51.204;6.536;2023-05-07T11:57:24;101216.34;;;23.19;51.30
74659;BME280;63186;51.204;6.536;2023-05-07T11:59:59;101227.50;;;23.09;50.74
74659;BME280;63186;51.204;6.536;2023-05-07T12:02:27;101222.16;;;23.00;51.98
74659;BME280;63186;51.204;6.536;2023-05-07T12:04:53;101221.69;;;22.94;51.55
74659;BME280;63186;51.204;6.536;2023-05-07T12:07:20;101213.25;;;22.91;51.67
74659;BME280;63186;51.204;6.536;2023-05-07T12:09:45;101216.53;;;22.96;51.54
74659;BME280;63186;51.204;6.536;2023-05-07T12:12:11;101222.09;;;22.93;50.83
74659;BME280;63186;51.204;6.536;2023-05-07T12:14:39;101222.88;;;22.90;51.50
74659;BME280;63186;51.204;6.536;2023-05-07T12:17:05;101225.50;;;23.09;51.45
74659;BME280;63186;51.204;6.536;2023-05-07T12:19:31;101224.81;;;23.23;51.76
74659;BME280;63186;51.204;6.536;2023-05-07T12:21:57;101232.13;;;23.31;51.70
74659;BME280;63186;51.204;6.536;2023-05-07T12:24:22;101228.31;;;23.13;52.19
74659;BME280;63186;51.204;6.536;2023-05-07T12:26:48;101230.78;;;23.18;52.11
74659;BME280;63186;51.204;6.536;2023-05-07T12:29:13;101226.75;;;23.15;51.93
74659;BME280;63186;51.204;6.536;2023-05-07T12:31:42;101235.06;;;23.05;52.15
74659;BME280;63186;51.204;6.536;2023-05-07T12:34:07;101226.59;;;23.01;52.51
74659;BME280;63186;51.204;6.536;2023-05-07T12:36:40;101219.50;;;22.81;52.19
74659;BME280;63186;51.204;6.536;2023-05-07T12:39:06;101223.34;;;22.65;53.41
74659;BME280;63186;51.204;6.536;2023-05-07T12:41:36;101224.69;;;22.45;53.73
74659;BME280;63186;51.204;6.536;2023-05-07T12:44:16;101224.25;;;22.43;54.37
74659;BME280;63186;51.204;6.536;2023-05-07T12:46:42;101225.19;;;22.51;53.95
74659;BME280;63186;51.204;6.536;2023-05-07T12:49:07;101221.09;;;22.44;54.70
74659;BME280;63186;51.204;6.536;2023-05-07T12:51:34;101221.41;;;22.39;54.54
74659;BME280;63186;51.204;6.536;2023-05-07T12:54:00;101220.03;;;22.26;54.28
74659;BME280;63186;51.204;6.536;2023-05-07T12:56:25;101229.44;;;22.11;55.20
74659;BME280;63186;51.204;6.536;2023-05-07T12:58:51;101224.94;;;22.06;55.61
74659;BME280;63186;51.204;6.536;2023-05-07T13:01:16;101227.25;;;22.01;55.10
74659;BME280;63186;51.204;6.536;2023-05-07T13:03:48;101227.19;;;21.97;55.40
74659;BME280;63186;51.204;6.536;2023-05-07T13:06:13;101218.44;;;22.02;55.76